Time;durP1;ratioP1;P1;durP2;ratioP2;P2;SDS_P1;SDS_P2;PMS_P1;PMS_P2;Temp;Humidity;BMP_temperature;BMP_pressure;BME280_temperature;BME280_humidity;BME280_pressure;Samples;Min_cycle;Max_cycle;Signal;HPM_P1;HPM_P2
2023/06/30 00:01:37;;;;;;;6.18;4.43;;;16.30;99.90;;;;;;4995805;28;94293;-32
2023/06/30 00:04:03;;;;;;;7.00;5.30;;;16.30;99.90;;;;;;4996010;28;94629;-38
2023/06/30 00:06:29;;;;;;;7.50;5.28;;;16.20;99.90;;;;;;4995290;28;94850;-37
2023/06/30 00:08:55;;;;;;;13.40;5.40;;;16.20;99.90;;;;;;4996721;28;92232;-34
2023/06/30 00:11:23;;;;;;;12.68;5.63;;;16.10;99.90;;;;;;4995490;28;93632;-34
2023/06/30 00:13:52;;;;;;;12.48;5.20;;;16.20;99.90;;;;;;4996247;28;94864;-35
2023/06/30 00:16:19;;;;;;;9.07;5.53;;;16.10;99.90;;;;;;4989292;28;94269;-34
2023/06/30 00:18:46;;;;;;;9.73;5.00;;;16.10;99.90;;;;;;4975824;28;94441;-37
2023/06/30 00:21:11;;;;;;;7.75;4.78;;;16.10;99.90;;;;;;4976585;28;93295;-35
2023/06/30 00:23:37;;;;;;;10.00;4.35;;;16.10;99.90;;;;;;4976222;28;94784;-38
2023/06/30 00:26:03;;;;;;;6.50;5.55;;;16.00;99.90;;;;;;4975567;28;94644;-35
2023/06/30 00:28:28;;;;;;;14.38;4.57;;;16.00;99.90;;;;;;4958596;28;94146;-35
2023/06/30 00:30:54;;;;;;;13.07;5.50;;;16.00;99.90;;;;;;4975819;28;93242;-32
2023/06/30 00:33:20;;;;;;;5.75;4.30;;;15.90;99.90;;;;;;4988998;28;94883;-36
2023/06/30 00:35:45;;;;;;;11.02;4.90;;;15.90;99.90;;;;;;4995507;28;94991;-35
2023/06/30 00:38:11;;;;;;;10.00;4.78;;;15.90;99.90;;;;;;4995534;28;93588;-34
2023/06/30 00:40:36;;;;;;;9.50;4.95;;;15.80;99.90;;;;;;4996215;28;92713;-35
2023/06/30 00:43:02;;;;;;;4.88;4.43;;;15.80;99.90;;;;;;4982480;28;95838;-34
2023/06/30 00:45:28;;;;;;;13.45;4.78;;;15.80;99.90;;;;;;4981362;28;95098;-35
2023/06/30 00:47:53;;;;;;;8.00;5.47;;;15.80;99.90;;;;;;4995778;28;94055;-36
2023/06/30 00:50:19;;;;;;;6.32;4.72;;;15.80;99.90;;;;;;4997475;28;92126;-33
2023/06/30 00:52:47;;;;;;;10.90;5.22;;;15.80;99.90;;;;;;4998838;28;95636;-34
2023/06/30 00:55:14;;;;;;;;;;;15.70;99.90;;;;;;4997967;28;94513;-36
2023/06/30 00:57:40;;;;;;;6.20;4.20;;;15.60;99.90;;;;;;4988813;28;93505;-36
2023/06/30 01:00:10;;;;;;;10.27;4.75;;;15.60;99.90;;;;;;4979157;28;92128;-33
2023/06/30 01:02:49;;;;;;;10.02;4.18;;;15.60;99.90;;;;;;4979651;28;94440;-36
2023/06/30 01:05:27;;;;;;;7.07;5.00;;;15.60;99.90;;;;;;4979402;28;94932;-33
2023/06/30 01:07:56;;;;;;;5.82;4.07;;;15.50;99.90;;;;;;4979215;28;93982;-34
2023/06/30 01:10:24;;;;;;;7.25;4.55;;;15.40;99.90;;;;;;4979486;28;95005;-33
2023/06/30 01:12:51;;;;;;;8.80;3.97;;;15.40;99.90;;;;;;4978041;28;95636;-34
2023/06/30 01:15:17;;;;;;;6.45;4.22;;;15.30;99.90;;;;;;4978712;28;94137;-36
2023/06/30 01:17:51;;;;;;;8.85;3.95;;;15.30;99.90;;;;;;4979613;28;93809;-34
2023/06/30 01:20:19;;;;;;;5.07;3.45;;;15.30;99.90;;;;;;4978918;28;92581;-34
2023/06/30 01:23:33;;;;;;;7.82;4.18;;;15.20;99.90;;;;;;4979025;28;94270;-36
2023/06/30 01:26:00;;;;;;;6.05;4.43;;;15.10;99.90;;;;;;4924113;28;95102;-36
2023/06/30 01:28:29;;;;;;;7.38;3.40;;;15.00;99.90;;;;;;4971598;28;94889;-33
2023/06/30 01:30:56;;;;;;;10.85;4.88;;;15.00;99.90;;;;;;4978719;28;95197;-36
2023/06/30 01:33:22;;;;;;;13.52;4.75;;;15.00;99.90;;;;;;4970295;28;95596;-32
2023/06/30 01:35:48;;;;;;;6.88;3.70;;;15.00;99.90;;;;;;4978759;28;96051;-33
2023/06/30 01:38:13;;;;;;;5.65;3.58;;;14.90;99.90;;;;;;4978215;28;93616;-34
2023/06/30 01:40:40;;;;;;;7.30;4.13;;;14.80;99.90;;;;;;4979597;28;93507;-37
2023/06/30 01:43:06;;;;;;;11.48;3.95;;;14.80;99.90;;;;;;4978601;28;94832;-38
2023/06/30 01:45:32;;;;;;;4.78;3.35;;;14.80;99.90;;;;;;4965761;28;95054;-35
2023/06/30 01:47:59;;;;;;;9.02;4.00;;;14.80;99.90;;;;;;4978923;28;92257;-33
2023/06/30 01:50:29;;;;;;;10.18;4.15;;;14.70;99.90;;;;;;4976187;28;92792;-35
2023/06/30 01:52:56;;;;;;;12.60;3.90;;;14.70;99.90;;;;;;4977978;28;94290;-33
2023/06/30 01:55:22;;;;;;;9.70;4.60;;;14.60;99.90;;;;;;4975226;28;94131;-33
2023/06/30 01:57:47;;;;;;;7.22;3.78;;;14.60;99.90;;;;;;4978492;28;95971;-34
2023/06/30 02:00:13;;;;;;;5.68;3.85;;;14.50;99.90;;;;;;4964707;28;93697;-34
2023/06/30 02:02:40;;;;;;;12.18;3.97;;;14.60;99.90;;;;;;4978497;28;93206;-34
2023/06/30 02:05:06;;;;;;;7.05;3.75;;;14.50;99.90;;;;;;4977652;28;94387;-33
2023/06/30 02:07:31;;;;;;;6.43;3.65;;;14.50;99.90;;;;;;4977398;28;94106;-33
2023/06/30 02:09:57;;;;;;;7.30;3.20;;;14.40;99.90;;;;;;4976750;28;92606;-35
2023/06/30 02:12:23;;;;;;;10.55;4.03;;;14.40;99.90;;;;;;4961270;28;96252;-35
2023/06/30 02:14:48;;;;;;;11.95;3.90;;;14.30;99.90;;;;;;4965713;28;94664;-35
2023/06/30 02:17:14;;;;;;;5.97;3.78;;;14.30;99.90;;;;;;4978172;28;92611;-33
2023/06/30 02:19:40;;;;;;;4.05;3.08;;;14.30;99.90;;;;;;4978063;28;92923;-32
2023/06/30 02:22:05;;;;;;;6.53;3.42;;;14.20;99.90;;;;;;4983018;28;95499;-32
2023/06/30 02:24:31;;;;;;;3.75;2.83;;;14.20;99.90;;;;;;4977642;28;95772;-34
2023/06/30 02:26:56;;;;;;;6.55;3.47;;;14.20;99.90;;;;;;4977824;28;92723;-35
2023/06/30 02:29:22;;;;;;;9.70;3.78;;;14.10;99.90;;;;;;4977446;28;93618;-34
2023/06/30 02:31:48;;;;;;;4.38;3.20;;;14.10;99.90;;;;;;4972245;28;94680;-37
2023/06/30 02:34:14;;;;;;;3.67;3.38;;;14.00;99.90;;;;;;4977612;28;96216;-32
2023/06/30 02:36:39;;;;;;;7.00;3.80;;;14.00;99.90;;;;;;4970832;28;93717;-33
2023/06/30 02:39:05;;;;;;;5.65;3.53;;;13.90;99.90;;;;;;4965680;28;92253;-35
2023/06/30 02:41:30;;;;;;;9.65;3.40;;;13.80;99.90;;;;;;4977497;28;95695;-33
2023/06/30 02:43:56;;;;;;;7.18;3.47;;;13.80;99.90;;;;;;4977603;28;94165;-39
2023/06/30 02:46:22;;;;;;;6.25;4.22;;;13.80;99.90;;;;;;4977666;28;95362;-35
2023/06/30 02:48:47;;;;;;;6.03;3.95;;;13.80;99.90;;;;;;4959872;28;94285;-39
2023/06/30 02:51:13;;;;;;;7.38;3.53;;;13.70;99.90;;;;;;4977385;28;94223;-33
2023/06/30 02:53:39;;;;;;;11.43;4.38;;;13.70;99.90;;;;;;4976926;28;94359;-33
2023/06/30 02:56:04;;;;;;;8.55;4.07;;;13.70;99.90;;;;;;4983585;28;94729;-33
2023/06/30 02:58:30;;;;;;;7.53;3.63;;;13.70;99.90;;;;;;4977503;28;94551;-33
2023/06/30 03:00:56;;;;;;;7.90;3.80;;;13.60;99.90;;;;;;4977865;28;92871;-35
2023/06/30 03:03:22;;;;;;;8.98;3.22;;;13.60;99.90;;;;;;4990677;28;95821;-32
2023/06/30 03:05:48;;;;;;;11.73;4.32;;;13.60;99.90;;;;;;4997113;28;93475;-32
2023/06/30 03:08:13;;;;;;;3.53;3.22;;;13.60;99.90;;;;;;4996657;28;93884;-33
2023/06/30 03:10:39;;;;;;;5.85;3.58;;;13.50;99.90;;;;;;4996558;28;95333;-32
2023/06/30 03:13:05;;;;;;;7.47;3.63;;;13.50;99.90;;;;;;4996439;28;95875;-37
2023/06/30 03:15:31;;;;;;;5.13;3.72;;;13.50;99.90;;;;;;4997096;28;94484;-35
2023/06/30 03:17:56;;;;;;;6.43;3.55;;;13.50;99.90;;;;;;4996669;28;92155;-35
2023/06/30 03:20:23;;;;;;;10.77;4.03;;;13.40;99.90;;;;;;4996965;28;94675;-33
2023/06/30 03:22:49;;;;;;;6.65;3.35;;;13.40;99.90;;;;;;4996614;28;95522;-33
2023/06/30 03:25:15;;;;;;;5.72;4.43;;;13.40;99.90;;;;;;4996969;28;93889;-34
2023/06/30 03:27:40;;;;;;;10.23;4.82;;;13.40;99.90;;;;;;4997723;28;92818;-32
2023/06/30 03:30:06;;;;;;;7.80;5.03;;;13.40;99.90;;;;;;4996408;28;94711;-37
2023/06/30 03:32:32;;;;;;;12.85;4.95;;;13.30;99.90;;;;;;4989991;28;97425;-32
2023/06/30 03:35:00;;;;;;;7.78;4.00;;;13.30;99.90;;;;;;4972205;28;95653;-35
2023/06/30 03:37:26;;;;;;;8.07;4.05;;;13.30;99.90;;;;;;4975181;28;94896;-32
2023/06/30 03:39:51;;;;;;;7.70;3.45;;;13.20;99.90;;;;;;4977113;28;95461;-36
2023/06/30 03:42:17;;;;;;;6.93;4.20;;;13.20;99.90;;;;;;4975119;28;94716;-35
2023/06/30 03:44:43;;;;;;;5.50;3.92;;;13.20;99.90;;;;;;4961335;28;92743;-34
2023/06/30 03:47:08;;;;;;;6.30;3.90;;;13.20;99.90;;;;;;4975626;28;94048;-41
2023/06/30 03:49:34;;;;;;;11.77;4.50;;;13.20;99.90;;;;;;4976965;28;95185;-37
2023/06/30 03:52:00;;;;;;;14.95;4.43;;;13.20;99.90;;;;;;4977342;28;94501;-32
2023/06/30 03:54:25;;;;;;;10.10;4.68;;;13.20;99.90;;;;;;4976145;28;94619;-32
2023/06/30 03:56:51;;;;;;;7.68;4.80;;;13.20;99.90;;;;;;4976907;28;94695;-33
2023/06/30 03:59:17;;;;;;;9.02;4.63;;;13.20;99.90;;;;;;4975295;28;95588;-36
2023/06/30 04:01:42;;;;;;;5.75;4.00;;;13.20;99.90;;;;;;4976899;28;95362;-34
2023/06/30 04:04:08;;;;;;;9.38;4.13;;;13.20;99.90;;;;;;4976998;28;94496;-32
2023/06/30 04:06:36;;;;;;;4.85;3.55;;;13.10;99.90;;;;;;4976389;28;92520;-35
2023/06/30 04:09:02;;;;;;;9.85;4.50;;;13.10;99.90;;;;;;4976661;28;94648;-38
2023/06/30 04:11:27;;;;;;;10.27;4.57;;;13.20;99.90;;;;;;4976085;28;94518;-35
2023/06/30 04:13:53;;;;;;;6.65;4.22;;;13.10;99.90;;;;;;4976623;28;92881;-37
2023/06/30 04:16:19;;;;;;;9.43;4.50;;;13.10;99.90;;;;;;4960907;28;92896;-33
2023/06/30 04:18:44;;;;;;;7.18;4.20;;;13.00;99.90;;;;;;4991716;28;94574;-32
2023/06/30 04:21:10;;;;;;;7.22;4.22;;;13.10;99.90;;;;;;4977316;28;94779;-36
2023/06/30 04:23:36;;;;;;;9.68;4.47;;;13.10;99.90;;;;;;4974610;28;94288;-37
2023/06/30 04:26:04;;;;;;;6.30;4.50;;;13.10;99.90;;;;;;4974829;28;94068;-36
2023/06/30 04:28:30;;;;;;;4.77;4.03;;;13.20;99.90;;;;;;4975663;28;94610;-34
2023/06/30 04:30:56;;;;;;;6.45;3.67;;;13.20;99.90;;;;;;4975377;28;95060;-33
2023/06/30 04:33:21;;;;;;;6.18;4.95;;;13.20;99.90;;;;;;4972757;28;92231;-34
2023/06/30 04:35:47;;;;;;;5.15;4.03;;;13.30;99.90;;;;;;4995690;28;94619;-34
2023/06/30 04:38:12;;;;;;;7.75;4.70;;;13.30;99.90;;;;;;5006758;22;95943;-35
2023/06/30 04:40:38;;;;;;;12.10;4.75;;;13.30;99.90;;;;;;4974422;28;94652;-33
2023/06/30 04:43:11;;;;;;;7.47;3.85;;;13.40;99.90;;;;;;4974785;28;93164;-35
2023/06/30 04:45:36;;;;;;;10.27;4.97;;;13.40;99.90;;;;;;4975178;28;93841;-34
2023/06/30 04:48:02;;;;;;;8.65;3.95;;;13.50;99.90;;;;;;4973969;28;96332;-34
2023/06/30 04:50:28;;;;;;;7.90;4.32;;;13.60;99.90;;;;;;4974706;28;95693;-35
2023/06/30 04:52:54;;;;;;;9.18;5.03;;;13.70;99.90;;;;;;4973849;28;94079;-36
2023/06/30 04:55:19;;;;;;;5.07;3.83;;;13.80;99.90;;;;;;4956405;28;93110;-33
2023/06/30 04:57:45;;;;;;;9.40;4.18;;;13.90;99.90;;;;;;4956175;28;94802;-35
2023/06/30 05:00:11;;;;;;;4.95;3.90;;;14.00;99.90;;;;;;4962698;28;94527;-32
2023/06/30 05:02:37;;;;;;;8.25;3.53;;;14.10;99.90;;;;;;4975766;28;94925;-37
2023/06/30 05:05:03;;;;;;;6.10;4.68;;;14.30;99.90;;;;;;4975910;28;92316;-36
2023/06/30 05:07:28;;;;;;;7.45;4.93;;;14.30;99.90;;;;;;4974240;28;94075;-36
2023/06/30 05:09:54;;;;;;;7.70;3.83;;;14.50;99.90;;;;;;4949919;28;96581;-32
2023/06/30 05:12:20;;;;;;;5.20;4.00;;;14.70;99.90;;;;;;4966880;28;95124;-36
2023/06/30 05:14:46;;;;;;;4.25;3.20;;;14.80;99.90;;;;;;4975595;28;93058;-35
2023/06/30 05:17:11;;;;;;;7.20;4.00;;;15.00;99.90;;;;;;4975912;28;94226;-35
2023/06/30 05:19:37;;;;;;;10.85;4.28;;;15.30;99.90;;;;;;4969110;28;93430;-33
2023/06/30 05:22:03;;;;;;;3.72;3.22;;;15.50;99.90;;;;;;4957063;28;94533;-35
2023/06/30 05:24:29;;;;;;;4.57;2.88;;;15.70;99.90;;;;;;4956165;28;92909;-37
2023/06/30 05:26:56;;;;;;;7.43;3.72;;;15.90;99.90;;;;;;4975930;28;94655;-31
2023/06/30 05:29:21;;;;;;;4.22;3.30;;;16.10;99.90;;;;;;4974738;28;94601;-36
2023/06/30 05:31:47;;;;;;;9.20;3.80;;;16.30;99.90;;;;;;4975580;28;94063;-34
2023/06/30 05:34:15;;;;;;;3.90;3.33;;;16.60;99.90;;;;;;4973874;28;92952;-33
2023/06/30 05:36:44;;;;;;;;;;;16.80;99.90;;;;;;4958741;28;96695;-35
2023/06/30 05:39:10;;;;;;;7.25;3.53;;;17.00;99.90;;;;;;4982290;28;95062;-35
2023/06/30 05:41:36;;;;;;;4.30;3.20;;;17.00;99.90;;;;;;4982331;28;93582;-35
2023/06/30 05:44:02;;;;;;;7.45;3.00;;;17.30;99.90;;;;;;4983802;28;92887;-34
2023/06/30 05:46:27;;;;;;;2.25;2.05;;;17.40;99.90;;;;;;4981061;28;95184;-35
2023/06/30 05:48:53;;;;;;;5.57;3.03;;;17.60;99.90;;;;;;4984680;28;94628;-37
2023/06/30 05:51:19;;;;;;;4.57;2.60;;;17.80;99.90;;;;;;4980965;28;93731;-36
2023/06/30 05:53:45;;;;;;;5.18;2.47;;;17.90;99.90;;;;;;4987253;28;91846;-33
2023/06/30 05:56:11;;;;;;;6.53;3.20;;;18.00;99.90;;;;;;4982258;28;94507;-35
2023/06/30 05:58:39;;;;;;;7.13;3.05;;;18.20;99.90;;;;;;4982756;28;94250;-37
2023/06/30 06:01:05;;;;;;;11.48;2.58;;;18.30;99.90;;;;;;4994766;28;95833;-38
2023/06/30 06:03:30;;;;;;;12.00;3.17;;;18.50;99.90;;;;;;4976146;28;94209;-34
2023/06/30 06:05:59;;;;;;;5.07;3.22;;;18.50;99.90;;;;;;4988716;28;93105;-37
2023/06/30 06:08:24;;;;;;;6.40;2.45;;;18.80;99.90;;;;;;4976039;28;95573;-35
2023/06/30 06:10:50;;;;;;;8.85;2.47;;;19.10;99.90;;;;;;4977110;28;93538;-33
2023/06/30 06:13:35;;;;;;;2.88;2.40;;;19.00;99.90;;;;;;4958671;28;93373;-35
2023/06/30 06:16:01;;;;;;;3.55;2.75;;;19.40;99.90;;;;;;4976649;28;94760;-34
2023/06/30 06:18:27;;;;;;;5.15;2.65;;;19.60;99.90;;;;;;4976328;28;94697;-38
2023/06/30 06:20:53;;;;;;;3.03;2.58;;;19.60;99.90;;;;;;4977500;28;93255;-35
2023/06/30 06:23:19;;;;;;;7.05;2.75;;;19.80;99.90;;;;;;4976315;28;93562;-32
2023/06/30 06:25:45;;;;;;;4.75;2.55;;;19.70;99.90;;;;;;4975218;28;95665;-37
2023/06/30 06:28:11;;;;;;;5.95;3.00;;;19.90;99.90;;;;;;4975851;28;95406;-34
2023/06/30 06:30:36;;;;;;;6.35;2.80;;;20.20;99.90;;;;;;4989708;28;93775;-35
2023/06/30 06:33:02;;;;;;;5.38;2.65;;;20.30;99.90;;;;;;4981945;28;92997;-35
2023/06/30 06:35:27;;;;;;;7.10;2.83;;;20.50;99.90;;;;;;4993663;28;95429;-34
2023/06/30 06:37:53;;;;;;;3.33;2.08;;;20.30;99.90;;;;;;4975293;28;94564;-33
2023/06/30 06:40:19;;;;;;;10.48;3.00;;;20.50;99.90;;;;;;4987201;28;93725;-36
2023/06/30 06:42:45;;;;;;;4.78;2.60;;;20.80;99.90;;;;;;4994756;28;92959;-36
2023/06/30 06:45:12;;;;;;;10.35;3.35;;;20.90;99.90;;;;;;4995558;28;94569;-34
2023/06/30 06:48:15;;;;;;;7.63;2.67;;;21.00;99.90;;;;;;4983234;28;94003;-33
2023/06/30 06:50:41;;;;;;;7.82;3.17;;;21.10;99.90;;;;;;4972976;28;94610;-33
2023/06/30 06:53:07;;;;;;;5.68;2.17;;;21.00;99.90;;;;;;4976983;28;93344;-38
2023/06/30 06:55:33;;;;;;;3.97;2.42;;;21.20;99.90;;;;;;4994049;28;94697;-36
2023/06/30 06:57:58;;;;;;;6.82;2.17;;;21.20;99.90;;;;;;4986782;28;94184;-35
2023/06/30 07:00:24;;;;;;;2.75;1.48;;;21.40;99.90;;;;;;4985005;28;93215;-36
2023/06/30 07:02:50;;;;;;;10.25;2.33;;;21.40;99.90;;;;;;4982183;28;94407;-34
2023/06/30 07:05:16;;;;;;;2.70;1.88;;;21.30;99.90;;;;;;4985068;28;95311;-35
2023/06/30 07:07:42;;;;;;;6.70;2.13;;;21.30;99.90;;;;;;4984033;28;96345;-34
2023/06/30 07:10:08;;;;;;;3.63;1.90;;;21.30;99.90;;;;;;4986719;28;93127;-34
2023/06/30 07:12:34;;;;;;;4.40;2.42;;;20.90;99.90;;;;;;4982327;28;94844;-32
2023/06/30 07:14:59;;;;;;;3.40;2.05;;;21.20;99.90;;;;;;4995526;28;96549;-32
2023/06/30 07:17:25;;;;;;;3.92;2.58;;;21.50;99.90;;;;;;4996529;28;96504;-35
2023/06/30 07:19:50;;;;;;;3.60;2.40;;;21.10;99.90;;;;;;4996174;28;94670;-34
2023/06/30 07:22:16;;;;;;;7.32;2.00;;;21.30;99.90;;;;;;4992359;28;94444;-37
2023/06/30 07:24:42;;;;;;;2.35;1.98;;;21.00;99.90;;;;;;4977240;28;93636;-35
2023/06/30 07:27:07;;;;;;;4.00;2.63;;;20.90;99.90;;;;;;4975273;28;94260;-39
2023/06/30 07:29:33;;;;;;;5.95;2.65;;;20.90;99.90;;;;;;4977210;28;93179;-33
2023/06/30 07:31:58;;;;;;;4.18;2.10;;;20.90;99.90;;;;;;4959768;28;93750;-33
2023/06/30 07:34:25;;;;;;;5.43;1.58;;;21.00;99.90;;;;;;4977342;28;94623;-35
2023/06/30 07:36:51;;;;;;;6.00;1.90;;;20.80;99.90;;;;;;4977867;28;94532;-34
2023/06/30 07:39:18;;;;;;;4.43;1.90;;;20.70;99.90;;;;;;4976607;28;95633;-37
2023/06/30 07:41:43;;;;;;;3.25;1.80;;;20.80;99.90;;;;;;4978255;28;94878;-33
2023/06/30 07:44:11;;;;;;;5.07;2.15;;;20.70;99.90;;;;;;4976955;28;94562;-33
2023/06/30 07:46:37;;;;;;;5.55;2.42;;;20.80;99.90;;;;;;4978217;28;95094;-33
2023/06/30 07:49:03;;;;;;;6.85;1.88;;;20.60;99.90;;;;;;4968401;28;94580;-32
2023/06/30 07:51:29;;;;;;;6.82;2.25;;;20.30;99.90;;;;;;4976959;28;93066;-32
2023/06/30 07:53:55;;;;;;;3.25;2.25;;;20.60;99.90;;;;;;4985352;28;94964;-33
2023/06/30 07:56:21;;;;;;;4.35;1.67;;;20.80;99.90;;;;;;4983660;28;94350;-33
2023/06/30 07:58:46;;;;;;;3.08;1.85;;;21.00;99.90;;;;;;4995799;28;93512;-32
2023/06/30 08:01:12;;;;;;;4.20;1.65;;;21.20;99.90;;;;;;4993926;28;93482;-36
2023/06/30 08:03:38;;;;;;;4.03;1.55;;;21.30;99.90;;;;;;4983459;28;95044;-32
2023/06/30 08:06:04;;;;;;;6.53;2.22;;;21.40;99.90;;;;;;4996028;28;95085;-38
2023/06/30 08:08:33;;;;;;;1.85;1.42;;;21.50;99.90;;;;;;4996032;28;93197;-34
2023/06/30 08:10:59;;;;;;;4.68;2.60;;;21.60;99.90;;;;;;4995792;28;95008;-32
2023/06/30 08:13:26;;;;;;;3.83;2.35;;;21.50;99.90;;;;;;4995113;28;93786;-36
2023/06/30 08:15:52;;;;;;;5.10;1.77;;;21.20;99.90;;;;;;4995618;28;95647;-34
2023/06/30 08:18:17;;;;;;;6.45;1.80;;;20.90;99.90;;;;;;4996223;28;94083;-37
2023/06/30 08:20:43;;;;;;;2.95;1.63;;;21.20;99.90;;;;;;4996007;28;92315;-35
2023/06/30 08:23:12;;;;;;;2.22;2.03;;;21.50;99.90;;;;;;4986648;28;95706;-35
2023/06/30 08:25:37;;;;;;;2.13;1.40;;;22.00;99.90;;;;;;4988902;28;94351;-34
2023/06/30 08:28:03;;;;;;;2.60;1.73;;;22.20;99.90;;;;;;4976058;28;94363;-33
2023/06/30 08:30:29;;;;;;;2.33;1.63;;;22.00;99.90;;;;;;4976089;28;93273;-35
2023/06/30 08:32:54;;;;;;;7.55;1.60;;;22.20;99.90;;;;;;4976707;28;95035;-32
2023/06/30 08:35:20;;;;;;;4.40;1.60;;;22.30;99.90;;;;;;4991354;28;94452;-32
2023/06/30 08:37:46;;;;;;;1.65;1.55;;;22.50;99.90;;;;;;4995884;28;94101;-34
2023/06/30 08:40:12;;;;;;;1.65;1.55;;;22.50;99.30;;;;;;4992535;28;93248;-36
2023/06/30 08:42:44;;;;;;;5.57;1.88;;;22.80;97.30;;;;;;4976902;28;94982;-35
2023/06/30 08:45:12;;;;;;;3.10;1.45;;;23.10;90.70;;;;;;4976573;28;95583;-36
2023/06/30 08:47:38;;;;;;;1.95;1.50;;;23.20;95.00;;;;;;4987387;28;93517;-35
2023/06/30 08:50:06;;;;;;;3.88;1.90;;;23.10;84.40;;;;;;4994559;28;93086;-33
2023/06/30 08:52:33;;;;;;;1.52;1.42;;;22.80;88.20;;;;;;4995434;28;96188;-34
2023/06/30 08:55:01;;;;;;;2.60;1.73;;;22.20;98.00;;;;;;4991498;28;94916;-34
2023/06/30 08:57:27;;;;;;;3.17;1.30;;;21.90;99.10;;;;;;4976639;28;93214;-35
2023/06/30 08:59:52;;;;;;;4.45;2.13;;;22.00;99.90;;;;;;4975396;28;93112;-34
2023/06/30 09:02:19;;;;;;;4.55;2.28;;;22.20;99.90;;;;;;4975546;28;94639;-35
2023/06/30 09:04:45;;;;;;;3.00;1.55;;;22.60;99.90;;;;;;4976783;28;94874;-33
2023/06/30 09:07:20;;;;;;;3.10;2.20;;;22.70;99.90;;;;;;4976108;28;94813;-38
2023/06/30 09:09:46;;;;;;;3.83;1.50;;;23.30;94.10;;;;;;4977630;28;93215;-35
2023/06/30 09:12:14;;;;;;;2.53;1.52;;;22.60;90.60;;;;;;4978739;28;95492;-33
2023/06/30 09:14:42;;;;;;;1.92;1.52;;;23.10;87.40;;;;;;4985072;28;94995;-34
2023/06/30 09:17:08;;;;;;;1.77;1.35;;;22.80;80.90;;;;;;4985814;28;94843;-35
2023/06/30 09:19:35;;;;;;;1.48;1.38;;;22.90;84.00;;;;;;4998286;28;92202;-33
2023/06/30 09:22:04;;;;;;;2.38;1.35;;;22.90;83.50;;;;;;4999224;28;94646;-33
2023/06/30 09:24:30;;;;;;;5.65;2.00;;;23.20;74.10;;;;;;4965977;28;95236;-37
2023/06/30 09:26:56;;;;;;;3.63;1.58;;;23.30;78.70;;;;;;4979990;28;92889;-36
2023/06/30 09:29:23;;;;;;;2.75;1.45;;;23.40;78.60;;;;;;4966425;28;93087;-33
2023/06/30 09:31:52;;;;;;;5.63;1.47;;;23.10;72.50;;;;;;4979333;28;94912;-36
2023/06/30 09:34:21;;;;;;;2.90;1.67;;;23.40;82.50;;;;;;4979112;28;94575;-34
2023/06/30 09:36:54;;;;;;;4.10;2.22;;;23.80;73.20;;;;;;4979325;28;93171;-34
2023/06/30 09:39:21;;;;;;;1.77;1.52;;;23.90;72.00;;;;;;4978816;28;92641;-34
2023/06/30 09:41:48;;;;;;;2.87;1.83;;;23.90;70.10;;;;;;4978778;28;96208;-33
2023/06/30 09:44:17;;;;;;;2.40;1.42;;;24.10;70.90;;;;;;4978540;28;95876;-32
2023/06/30 09:46:53;;;;;;;2.50;1.63;;;24.00;70.10;;;;;;4979310;28;95180;-34
2023/06/30 09:49:32;;;;;;;3.08;1.30;;;24.00;71.60;;;;;;4978723;28;92410;-34
2023/06/30 09:52:01;;;;;;;3.22;1.48;;;23.40;71.90;;;;;;4978921;28;94621;-35
2023/06/30 09:54:29;;;;;;;2.63;2.00;;;23.10;73.50;;;;;;4990997;28;95204;-34
2023/06/30 09:57:08;;;;;;;3.92;1.65;;;23.20;74.80;;;;;;4984838;28;94088;-32
2023/06/30 09:59:34;;;;;;;6.72;1.80;;;23.20;79.80;;;;;;4996139;28;92069;-33
2023/06/30 10:02:00;;;;;;;3.20;1.25;;;23.30;71.70;;;;;;4987011;28;94245;-36
2023/06/30 10:04:29;;;;;;;1.30;1.17;;;23.50;75.20;;;;;;4995853;28;93390;-35
2023/06/30 10:06:55;;;;;;;1.45;1.00;;;23.60;71.70;;;;;;4978226;28;94905;-34
2023/06/30 10:09:23;;;;;;;1.85;1.42;;;23.20;66.80;;;;;;4978493;28;93773;-33
2023/06/30 10:11:53;;;;;;;1.58;1.35;;;23.30;67.50;;;;;;4978635;28;94762;-35
2023/06/30 10:14:29;;;;;;;2.28;1.40;;;23.50;69.30;;;;;;4977758;28;95059;-35
2023/06/30 10:17:01;;;;;;;1.38;1.27;;;23.70;65.90;;;;;;4979185;28;93273;-33
2023/06/30 10:19:28;;;;;;;1.52;1.20;;;23.70;69.60;;;;;;4978912;28;93313;-36
2023/06/30 10:21:55;;;;;;;2.95;1.50;;;23.90;68.30;;;;;;4978960;28;95966;-34
2023/06/30 10:24:26;;;;;;;2.27;1.70;;;23.50;69.60;;;;;;4977872;28;95165;-35
2023/06/30 10:26:53;;;;;;;1.48;1.38;;;23.40;74.00;;;;;;4978599;28;93359;-35
2023/06/30 10:29:20;;;;;;;1.73;1.33;;;23.30;69.40;;;;;;4977962;28;93552;-34
2023/06/30 10:31:45;;;;;;;1.27;1.17;;;23.20;73.50;;;;;;4978652;28;95465;-34
2023/06/30 10:34:12;;;;;;;1.27;1.13;;;23.40;67.00;;;;;;4984348;28;96765;-33
2023/06/30 10:36:39;;;;;;;1.15;1.05;;;23.30;66.90;;;;;;4983990;28;94267;-37
2023/06/30 10:39:04;;;;;;;1.65;1.13;;;23.30;66.00;;;;;;4964885;28;92276;-33
2023/06/30 10:41:30;;;;;;;5.13;1.33;;;23.50;64.80;;;;;;4978337;28;93759;-37
2023/06/30 10:44:09;;;;;;;2.28;1.13;;;23.60;63.30;;;;;;4978450;28;94489;-34
2023/06/30 10:46:56;;;;;;;2.53;1.00;;;23.80;63.30;;;;;;4979447;28;94651;-37
2023/06/30 10:49:41;;;;;;;3.80;1.08;;;23.80;65.00;;;;;;4978662;28;94372;-33
2023/06/30 10:52:29;;;;;;;1.95;1.00;;;23.60;63.90;;;;;;4965987;28;95321;-37
2023/06/30 10:55:03;;;;;;;2.03;1.73;;;23.30;63.40;;;;;;4994145;28;95012;-34
2023/06/30 10:57:35;;;;;;;7.55;2.55;;;23.00;65.20;;;;;;4997807;28;94059;-35
2023/06/30 11:00:05;;;;;;;9.95;2.40;;;22.80;67.40;;;;;;4983601;28;93618;-33
2023/06/30 11:02:32;;;;;;;6.90;1.83;;;22.70;66.70;;;;;;4978212;28;96285;-32
2023/06/30 11:05:25;;;;;;;7.53;1.88;;;22.60;67.90;;;;;;4997340;28;93799;-35
2023/06/30 11:08:01;;;;;;;4.43;2.08;;;22.60;67.00;;;;;;4996741;28;94020;-35
2023/06/30 11:10:32;;;;;;;4.57;2.28;;;22.50;67.80;;;;;;4997051;28;93697;-35
2023/06/30 11:13:02;;;;;;;3.83;2.10;;;22.60;68.10;;;;;;4996337;28;95349;-34
2023/06/30 11:15:47;;;;;;;6.25;1.80;;;22.60;71.30;;;;;;4978732;28;93259;-34
2023/06/30 11:18:20;;;;;;;7.53;2.30;;;22.50;69.00;;;;;;4978045;28;94154;-37
2023/06/30 11:21:06;;;;;;;5.75;2.25;;;22.70;65.40;;;;;;4977623;28;94003;-34
2023/06/30 11:23:39;;;;;;;2.40;1.40;;;22.60;63.20;;;;;;4977654;28;95741;-34
2023/06/30 11:26:18;;;;;;;2.03;1.13;;;22.30;62.50;;;;;;4977230;28;96795;-36
2023/06/30 11:28:47;;;;;;;1.90;1.30;;;22.50;64.60;;;;;;4970132;28;92953;-38
2023/06/30 11:31:13;;;;;;;2.13;1.50;;;22.70;65.30;;;;;;4980012;28;93641;-36
2023/06/30 11:33:40;;;;;;;6.88;1.80;;;22.90;63.60;;;;;;4982884;28;95201;-35
2023/06/30 11:36:15;;;;;;;4.72;1.83;;;22.70;63.30;;;;;;4983369;28;94362;-37
2023/06/30 11:38:51;;;;;;;3.22;1.20;;;22.80;64.30;;;;;;4984957;28;94183;-37
2023/06/30 11:41:23;;;;;;;3.67;2.50;;;22.60;65.50;;;;;;4975366;28;92591;-33
2023/06/30 11:43:55;;;;;;;3.25;1.17;;;22.90;64.40;;;;;;4975867;28;94278;-35
2023/06/30 11:46:21;;;;;;;1.70;1.48;;;23.10;64.50;;;;;;4976850;28;95982;-34
2023/06/30 11:48:48;;;;;;;4.30;1.73;;;22.90;61.30;;;;;;4979172;28;95033;-38
2023/06/30 11:51:14;;;;;;;1.55;1.33;;;22.90;62.40;;;;;;4980875;28;94468;-34
2023/06/30 11:53:46;;;;;;;2.10;1.27;;;22.90;61.50;;;;;;4986277;28;94505;-37
2023/06/30 11:56:11;;;;;;;5.05;1.70;;;22.90;62.10;;;;;;4980857;28;94145;-32
2023/06/30 11:58:42;;;;;;;5.30;1.40;;;22.80;64.60;;;;;;4974846;28;94943;-34
2023/06/30 12:01:08;;;;;;;1.35;1.25;;;22.80;65.20;;;;;;4974750;28;94457;-35
2023/06/30 12:03:33;;;;;;;2.90;2.15;;;22.90;66.90;;;;;;4994601;28;94573;-35
2023/06/30 12:05:59;;;;;;;4.75;1.90;;;22.90;66.50;;;;;;4995055;28;94725;-34
2023/06/30 12:08:30;;;;;;;4.30;1.58;;;23.00;66.00;;;;;;4980886;28;92711;-37
2023/06/30 12:10:56;;;;;;;4.70;1.65;;;23.10;66.10;;;;;;4990024;28;94052;-32
2023/06/30 12:13:27;;;;;;;6.13;1.88;;;23.00;64.80;;;;;;4977274;28;97396;-35
2023/06/30 12:15:57;;;;;;;3.97;2.10;;;23.10;64.90;;;;;;4977172;28;94989;-35
2023/06/30 12:18:30;;;;;;;3.53;1.90;;;23.00;64.10;;;;;;4981876;28;94268;-35
2023/06/30 12:20:57;;;;;;;4.13;2.03;;;23.20;63.40;;;;;;4981780;28;94320;-37
2023/06/30 12:23:28;;;;;;;3.60;2.28;;;23.20;63.80;;;;;;4979889;28;93813;-39
2023/06/30 12:25:56;;;;;;;3.22;1.67;;;23.20;64.60;;;;;;4976813;28;93151;-34
2023/06/30 12:28:21;;;;;;;2.78;2.03;;;23.00;64.00;;;;;;4980065;28;94063;-35
2023/06/30 12:30:47;;;;;;;4.72;1.95;;;22.80;65.60;;;;;;4982821;28;93541;-35
2023/06/30 12:33:19;;;;;;;4.68;1.83;;;22.70;65.60;;;;;;4961909;28;96037;-35
2023/06/30 12:35:46;;;;;;;6.10;2.28;;;22.70;66.30;;;;;;4983534;28;94777;-35
2023/06/30 12:38:13;;;;;;;1.70;1.60;;;22.60;64.30;;;;;;4977183;28;95451;-33
2023/06/30 12:40:39;;;;;;;3.22;1.80;;;22.70;67.90;;;;;;4983454;28;92393;-38
2023/06/30 12:43:05;;;;;;;5.75;2.97;;;22.80;64.80;;;;;;4977809;28;94756;-36
2023/06/30 12:45:31;;;;;;;26.73;4.10;;;22.80;64.70;;;;;;4980195;28;94943;-33
2023/06/30 12:47:56;;;;;;;2.45;2.10;;;22.80;66.60;;;;;;4979280;28;94498;-35